Time;durP1;ratioP1;P1;durP2;ratioP2;P2;SDS_P1;SDS_P2;PMS_P1;PMS_P2;Temp;Humidity;BMP_temperature;BMP_pressure;BME280_temperature;BME280_humidity;BME280_pressure;Samples;Min_cycle;Max_cycle;Signal;HPM_P1;HPM_P2
2024/03/11 00:00:02;;;;;;;40.95;13.52;;;410.00;1612.80;;;;;;5010964;28;20025;-72
2024/03/11 00:02:30;;;;;;;37.08;15.82;;;409.90;1638.40;;;;;;4981455;28;20066;-72
2024/03/11 00:04:56;;;;;;;24.17;12.57;;;409.90;1612.80;;;;;;4996158;28;20029;-72
2024/03/11 00:07:22;;;;;;;32.78;14.68;;;410.00;1612.80;;;;;;5000579;28;20032;-71
2024/03/11 00:09:50;;;;;;;29.27;16.92;;;410.00;1612.80;;;;;;4995645;28;20084;-71
2024/03/11 00:12:17;;;;;;;30.02;17.05;;;409.90;1612.80;;;;;;5006812;28;20037;-73
2024/03/11 00:14:47;;;;;;;28.17;11.75;;;409.90;1638.40;;;;;;5013258;28;20087;-71
2024/03/11 00:17:14;;;;;;;42.40;17.77;;;409.80;1638.40;;;;;;5008320;28;20069;-70
2024/03/11 00:19:40;;;;;;;28.17;14.50;;;409.80;1638.40;;;;;;5013719;28;20577;-71
2024/03/11 00:22:06;;;;;;;22.52;12.02;;;409.80;1638.40;;;;;;5014017;28;20060;-71
2024/03/11 00:24:31;;;;;;;28.05;13.48;;;409.70;1638.40;;;;;;5009964;28;20018;-73
2024/03/11 00:26:57;;;;;;;38.35;15.65;;;409.70;1664.00;;;;;;5009365;28;20381;-73
2024/03/11 00:29:23;;;;;;;49.58;21.25;;;409.80;1664.00;;;;;;5009571;28;20030;-74
2024/03/11 00:31:51;;;;;;;25.38;11.23;;;409.70;1664.00;;;;;;5009415;28;20487;-71
2024/03/11 00:34:17;;;;;;;16.83;7.80;;;409.60;1689.60;;;;;;4995165;28;20034;-72
2024/03/11 00:36:48;;;;;;;12.90;8.05;;;384.90;1664.00;;;;;;4995759;28;20109;-72
2024/03/11 00:39:15;;;;;;;37.53;23.10;;;384.90;1689.60;;;;;;5018458;28;20030;-71
2024/03/11 00:41:41;;;;;;;40.28;18.23;;;384.90;1664.00;;;;;;5019136;28;20368;-72
2024/03/11 00:44:07;;;;;;;33.35;17.55;;;384.90;1689.60;;;;;;4996774;28;20030;-73
2024/03/11 00:46:35;;;;;;;28.95;13.82;;;;;;;;;;5027966;28;20415;-72
2024/03/11 00:49:02;;;;;;;25.27;15.25;;;;;;;;;;5001797;28;20548;-72
2024/03/11 00:51:29;;;;;;;36.03;21.80;;;409.70;1664.00;;;;;;5010595;28;20041;-72
2024/03/11 00:53:56;;;;;;;21.80;11.18;;;409.60;1664.00;;;;;;5026106;28;20029;-72
2024/03/11 00:56:22;;;;;;;30.75;15.02;;;409.60;1689.60;;;;;;5017729;28;20530;-72
2024/03/11 00:58:48;;;;;;;31.20;14.27;;;384.90;1664.00;;;;;;4993919;28;20033;-73
2024/03/11 01:01:14;;;;;;;27.42;14.90;;;384.90;1664.00;;;;;;4992826;28;20045;-72
2024/03/11 01:03:43;;;;;;;29.50;16.80;;;409.60;1689.60;;;;;;4980083;28;20380;-73
2024/03/11 01:06:09;;;;;;;25.98;15.02;;;384.90;1689.60;;;;;;4993081;28;20080;-72
2024/03/11 01:08:37;;;;;;;25.23;15.38;;;384.90;1689.60;;;;;;5001005;28;20357;-72
2024/03/11 01:11:03;;;;;;;21.00;12.10;;;384.90;1689.60;;;;;;4997156;28;20062;-72
2024/03/11 01:13:29;;;;;;;21.88;13.20;;;384.90;1689.60;;;;;;5013883;28;20068;-71
2024/03/11 01:15:55;;;;;;;22.13;12.88;;;384.80;1689.60;;;;;;5004652;28;20046;-73
2024/03/11 01:18:23;;;;;;;20.75;11.10;;;384.80;1715.20;;;;;;5008983;28;20435;-73
2024/03/11 01:20:51;;;;;;;15.38;8.25;;;384.80;1689.60;;;;;;5027619;28;20029;-72
2024/03/11 01:23:17;;;;;;;15.82;8.38;;;384.80;1715.20;;;;;;5024364;28;20027;-72
2024/03/11 01:25:44;;;;;;;16.25;9.32;;;384.70;1715.20;;;;;;5026222;28;20037;-71
2024/03/11 01:28:10;;;;;;;21.33;10.52;;;384.70;1715.20;;;;;;4989251;28;20092;-71
2024/03/11 01:30:37;;;;;;;18.52;10.65;;;384.60;1715.20;;;;;;5017484;28;20053;-72
2024/03/11 01:33:04;;;;;;;17.85;10.68;;;384.60;1715.20;;;;;;5011700;28;20130;-72
2024/03/11 01:35:31;;;;;;;15.07;7.80;;;384.50;1715.20;;;;;;5016374;28;20120;-71
2024/03/11 01:37:57;;;;;;;16.80;8.20;;;384.60;1715.20;;;;;;5016097;28;20104;-72
2024/03/11 01:40:24;;;;;;;19.98;9.00;;;384.60;1715.20;;;;;;5013780;28;20480;-71
2024/03/11 01:42:50;;;;;;;15.70;8.18;;;384.60;1715.20;;;;;;5008200;28;20050;-71
2024/03/11 01:45:17;;;;;;;13.55;8.02;;;384.60;1715.20;;;;;;5008577;28;20026;-71
2024/03/11 01:47:44;;;;;;;18.83;7.93;;;384.60;1715.20;;;;;;5008019;28;20022;-72
2024/03/11 01:50:13;;;;;;;16.27;6.97;;;384.50;1715.20;;;;;;5008483;28;20054;-71
2024/03/11 01:52:58;;;;;;;17.23;8.82;;;384.50;1715.20;;;;;;5011036;28;20392;-71
2024/03/11 01:55:25;;;;;;;15.15;7.47;;;384.50;1715.20;;;;;;5012386;28;20460;-72
2024/03/11 01:58:03;;;;;;;10.80;6.22;;;384.50;1740.80;;;;;;5011732;28;20074;-71
2024/03/11 02:00:29;;;;;;;13.82;6.80;;;384.50;1740.80;;;;;;5011924;28;20042;-71
2024/03/11 02:02:55;;;;;;;14.45;7.47;;;435.30;1766.40;;;;;;5012329;28;20490;-72
2024/03/11 02:05:24;;;;;;;14.90;5.93;;;384.60;1740.80;;;;;;5011452;28;20061;-71
2024/03/11 02:07:55;;;;;;;11.10;5.68;;;384.60;1766.40;;;;;;5012132;28;20095;-71
2024/03/11 02:10:23;;;;;;;19.20;5.55;;;384.60;1766.40;;;;;;5011661;28;20084;-72
2024/03/11 02:12:49;;;;;;;14.13;5.43;;;384.60;1792.00;;;;;;5011884;28;20026;-71
2024/03/11 02:15:17;;;;;;;11.30;6.32;;;384.60;1817.60;;;;;;5011636;28;20055;-71
2024/03/11 02:17:43;;;;;;;11.60;5.55;;;384.70;1817.60;;;;;;5011594;28;20472;-71
2024/03/11 02:20:17;;;;;;;11.85;5.65;;;384.70;1817.60;;;;;;5011586;28;20038;-71
2024/03/11 02:22:50;;;;;;;19.13;6.53;;;384.70;1817.60;;;;;;5011360;28;20109;-71
2024/03/11 02:25:30;;;;;;;11.45;5.00;;;384.70;1817.60;;;;;;5011614;28;20036;-71
2024/03/11 02:28:03;;;;;;;12.30;5.47;;;384.60;1843.20;;;;;;5011536;28;20053;-71
2024/03/11 02:30:29;;;;;;;12.02;6.95;;;384.60;1817.60;;;;;;4999147;28;20077;-71
2024/03/11 02:32:55;;;;;;;11.43;6.05;;;384.60;1843.20;;;;;;5011406;28;20030;-71
2024/03/11 02:35:22;;;;;;;10.45;6.15;;;384.60;1843.20;;;;;;5011293;28;20431;-71
2024/03/11 02:37:48;;;;;;;16.17;5.90;;;384.60;1843.20;;;;;;5011421;28;20109;-71
2024/03/11 02:40:18;;;;;;;9.75;5.40;;;384.60;1843.20;;;;;;5011198;28;20053;-71
2024/03/11 02:42:44;;;;;;;24.05;11.65;;;384.60;1843.20;;;;;;5011119;28;20026;-70
2024/03/11 02:45:16;;;;;;;18.40;6.38;;;384.60;1843.20;;;;;;5011023;28;20101;-71
2024/03/11 02:47:42;;;;;;;17.80;7.97;;;384.40;1843.20;;;;;;5011007;28;20500;-71
2024/03/11 02:50:08;;;;;;;11.23;6.90;;;384.40;1843.20;;;;;;5011172;28;20109;-70
2024/03/11 02:52:37;;;;;;;13.23;5.50;;;384.40;1868.80;;;;;;5011063;28;20026;-71
2024/03/11 02:55:05;;;;;;;13.95;6.95;;;384.60;1868.80;;;;;;5010889;28;20109;-71
2024/03/11 02:57:32;;;;;;;15.13;6.20;;;384.30;1868.80;;;;;;5010496;28;20024;-71
2024/03/11 02:59:58;;;;;;;20.40;8.35;;;384.40;1868.80;;;;;;5010921;28;20419;-71
2024/03/11 03:02:24;;;;;;;21.60;9.10;;;384.30;1868.80;;;;;;5010681;28;20033;-71
2024/03/11 03:04:50;;;;;;;29.83;12.48;;;384.30;1894.40;;;;;;5010107;28;20030;-71
2024/03/11 03:07:17;;;;;;;20.00;9.32;;;384.30;1894.40;;;;;;5010945;28;20104;-71
2024/03/11 03:09:43;;;;;;;15.38;7.38;;;384.30;1894.40;;;;;;5010466;28;20034;-71
2024/03/11 03:12:09;;;;;;;16.65;7.15;;;384.30;1920.00;;;;;;5010974;28;20413;-71
2024/03/11 03:14:38;;;;;;;15.77;7.32;;;384.30;1920.00;;;;;;5010385;28;20061;-71
2024/03/11 03:17:05;;;;;;;14.40;6.85;;;384.30;1920.00;;;;;;5010709;28;20022;-71
2024/03/11 03:19:31;;;;;;;15.88;6.85;;;384.30;1920.00;;;;;;5010357;28;20025;-72
2024/03/11 03:21:57;;;;;;;13.07;6.47;;;384.30;1920.00;;;;;;5010697;28;20418;-71
2024/03/11 03:24:23;;;;;;;12.57;6.10;;;384.20;1920.00;;;;;;5010348;28;20026;-71
2024/03/11 03:26:49;;;;;;;21.02;6.65;;;384.10;1920.00;;;;;;5010053;28;20046;-71
2024/03/11 03:29:15;;;;;;;11.57;5.53;;;384.10;1920.00;;;;;;5010011;28;20490;-70
2024/03/11 03:31:41;;;;;;;15.07;5.85;;;384.10;1945.60;;;;;;5010210;28;20029;-72
2024/03/11 03:34:09;;;;;;;10.35;5.38;;;384.10;1945.60;;;;;;5010301;28;20568;-70
2024/03/11 03:36:35;;;;;;;13.60;6.35;;;384.10;1945.60;;;;;;5010062;28;20033;-71
2024/03/11 03:39:03;;;;;;;15.38;7.05;;;384.10;1945.60;;;;;;5009962;28;20476;-71
2024/03/11 03:41:29;;;;;;;17.95;10.70;;;384.10;1945.60;;;;;;5010180;28;20061;-70
2024/03/11 03:43:55;;;;;;;25.52;12.77;;;384.10;1945.60;;;;;;5010070;28;20025;-70
2024/03/11 03:46:23;;;;;;;13.43;7.60;;;384.10;1945.60;;;;;;5010214;28;20033;-71
2024/03/11 03:48:49;;;;;;;23.80;12.35;;;384.10;1945.60;;;;;;5010160;28;20021;-71
2024/03/11 03:51:18;;;;;;;19.20;10.60;;;384.10;1945.60;;;;;;5010018;28;20072;-71
2024/03/11 03:53:45;;;;;;;16.15;9.73;;;384.10;1945.60;;;;;;5009882;28;20083;-71
2024/03/11 03:56:11;;;;;;;12.88;7.65;;;384.10;1945.60;;;;;;5009478;28;20044;-71
2024/03/11 03:58:37;;;;;;;17.05;8.15;;;384.10;1945.60;;;;;;5010052;28;20026;-71
2024/03/11 04:01:03;;;;;;;15.52;9.85;;;384.10;1945.60;;;;;;5009992;28;20044;-71
2024/03/11 04:03:29;;;;;;;21.80;10.40;;;384.10;1945.60;;;;;;5009711;28;20018;-71
2024/03/11 04:05:56;;;;;;;11.38;7.03;;;384.10;1945.60;;;;;;5009914;28;20030;-71
2024/03/11 04:08:23;;;;;;;17.10;7.47;;;384.10;1945.60;;;;;;5009809;28;20046;-71
2024/03/11 04:10:49;;;;;;;13.88;8.10;;;384.10;1920.00;;;;;;5009657;28;20116;-71
2024/03/11 04:13:15;;;;;;;13.65;8.43;;;384.10;1920.00;;;;;;5009452;28;20445;-71
2024/03/11 04:15:42;;;;;;;14.57;7.32;;;384.10;1920.00;;;;;;5009399;28;20022;-71
2024/03/11 04:18:10;;;;;;;20.02;7.63;;;384.10;1920.00;;;;;;5009470;28;20370;-71
2024/03/11 04:20:37;;;;;;;21.17;9.65;;;384.10;1920.00;;;;;;5009654;28;20033;-70
2024/03/11 04:23:07;;;;;;;11.93;5.97;;;384.10;1920.00;;;;;;5009298;28;20018;-72
2024/03/11 04:25:37;;;;;;;17.88;8.15;;;384.10;1920.00;;;;;;4997052;28;20025;-71
2024/03/11 04:28:04;;;;;;;15.77;8.07;;;384.10;1945.60;;;;;;5008773;28;20038;-71
2024/03/11 04:30:36;;;;;;;11.93;6.30;;;384.10;1945.60;;;;;;5009292;28;20133;-70
2024/03/11 04:33:02;;;;;;;14.20;7.18;;;384.10;1945.60;;;;;;5009064;28;20026;-72
2024/03/11 04:35:32;;;;;;;14.77;7.72;;;384.10;1971.20;;;;;;5009639;28;20054;-71
2024/03/11 04:38:03;;;;;;;14.07;6.43;;;384.00;1971.20;;;;;;5009545;28;20036;-72
2024/03/11 04:40:33;;;;;;;18.70;8.27;;;384.00;1971.20;;;;;;5009354;28;20032;-71
2024/03/11 04:42:59;;;;;;;16.95;6.35;;;384.00;1971.20;;;;;;5009324;28;20010;-73
2024/03/11 04:45:26;;;;;;;21.95;6.95;;;359.30;1996.80;;;;;;5009431;28;20117;-71
2024/03/11 04:47:59;;;;;;;12.15;6.72;;;384.00;1996.80;;;;;;5009058;28;20105;-72
2024/03/11 04:50:27;;;;;;;13.68;6.57;;;359.30;1996.80;;;;;;5009031;28;20041;-71
2024/03/11 04:52:57;;;;;;;13.43;6.53;;;359.30;1996.80;;;;;;5008998;28;20026;-71
2024/03/11 04:55:27;;;;;;;15.18;8.27;;;359.20;1996.80;;;;;;5008982;28;20025;-70
2024/03/11 04:57:53;;;;;;;16.98;7.15;;;359.20;1996.80;;;;;;5008708;28;20076;-71
2024/03/11 05:00:26;;;;;;;17.10;7.20;;;359.20;2022.40;;;;;;5009066;28;20045;-71
2024/03/11 05:03:03;;;;;;;19.42;6.68;;;359.20;2022.40;;;;;;5009081;28;20323;-72
2024/03/11 05:05:36;;;;;;;15.85;7.63;;;359.20;2022.40;;;;;;5009171;28;20040;-71
2024/03/11 05:08:03;;;;;;;13.77;7.68;;;359.20;2022.40;;;;;;5008723;28;20049;-71
2024/03/11 05:10:30;;;;;;;12.80;7.13;;;359.20;2022.40;;;;;;5008652;28;20492;-71
2024/03/11 05:12:57;;;;;;;20.02;7.50;;;359.20;2022.40;;;;;;5008912;28;20033;-71
2024/03/11 05:15:23;;;;;;;16.35;8.35;;;359.20;2022.40;;;;;;5008682;28;20014;-72
2024/03/11 05:17:49;;;;;;;17.90;8.05;;;359.20;2022.40;;;;;;5009053;28;20022;-71
2024/03/11 05:20:15;;;;;;;14.10;7.47;;;359.20;2022.40;;;;;;5008226;28;20184;-71
2024/03/11 05:22:42;;;;;;;21.25;10.45;;;359.10;2048.00;;;;;;5008690;28;20033;-71
2024/03/11 05:25:12;;;;;;;13.75;7.35;;;359.10;2048.00;;;;;;5008694;28;20029;-71
2024/03/11 05:27:39;;;;;;;15.98;6.78;;;359.10;2048.00;;;;;;5011757;28;20050;-71
2024/03/11 05:30:05;;;;;;;14.80;6.07;;;359.00;2048.00;;;;;;5012017;28;20026;-73
2024/03/11 05:32:34;;;;;;;12.13;6.53;;;359.20;2048.00;;;;;;5012702;28;20032;-71
2024/03/11 05:35:00;;;;;;;11.48;6.40;;;359.20;2048.00;;;;;;5013689;28;20380;-72
2024/03/11 05:37:27;;;;;;;14.63;6.07;;;359.20;2048.00;;;;;;5018723;28;20022;-71
2024/03/11 05:39:59;;;;;;;9.70;5.95;;;359.20;2048.00;;;;;;5012349;28;20064;-72
2024/03/11 05:42:25;;;;;;;12.07;6.47;;;359.20;2048.00;;;;;;5012665;28;20034;-71
2024/03/11 05:44:51;;;;;;;12.88;7.63;;;359.20;2048.00;;;;;;5009553;28;20022;-71
2024/03/11 05:47:17;;;;;;;12.73;6.65;;;359.30;2048.00;;;;;;5007642;28;20108;-71
2024/03/11 05:49:44;;;;;;;13.00;6.50;;;384.00;2022.40;;;;;;5011845;28;20108;-72
2024/03/11 05:52:10;;;;;;;13.35;7.63;;;384.00;2022.40;;;;;;5012503;28;20018;-71
2024/03/11 05:54:39;;;;;;;11.65;5.65;;;384.00;2022.40;;;;;;5012310;28;20072;-72
2024/03/11 05:57:05;;;;;;;16.40;6.85;;;384.10;2022.40;;;;;;5011845;28;20168;-71
2024/03/11 05:59:31;;;;;;;19.67;12.60;;;384.30;2022.40;;;;;;5013925;28;20028;-71
2024/03/11 06:01:58;;;;;;;48.05;28.73;;;384.40;2022.40;;;;;;5007328;28;20109;-70
2024/03/11 06:04:27;;;;;;;21.02;14.75;;;384.40;2022.40;;;;;;5015937;28;20148;-71
2024/03/11 06:06:54;;;;;;;16.75;7.85;;;384.60;1996.80;;;;;;5011903;28;20018;-71
2024/03/11 06:09:20;;;;;;;13.45;10.27;;;384.70;1996.80;;;;;;5009209;28;20029;-73
2024/03/11 06:11:48;;;;;;;18.73;7.00;;;384.80;1996.80;;;;;;5015451;28;20072;-71
2024/03/11 06:14:15;;;;;;;11.23;8.20;;;384.70;1996.80;;;;;;5017870;28;20034;-70
2024/03/11 06:16:45;;;;;;;15.15;9.10;;;384.60;1996.80;;;;;;5011571;28;20385;-72
2024/03/11 06:19:14;;;;;;;18.95;8.73;;;384.60;2022.40;;;;;;5011792;28;20512;-71
2024/03/11 06:21:43;;;;;;;18.00;9.45;;;384.50;2022.40;;;;;;5011567;28;20029;-72
2024/03/11 06:24:12;;;;;;;16.10;8.95;;;384.50;2022.40;;;;;;5011777;28;20026;-71
2024/03/11 06:26:38;;;;;;;19.90;9.13;;;384.50;2022.40;;;;;;5011623;28;20542;-70
2024/03/11 06:29:06;;;;;;;17.10;8.57;;;384.40;2022.40;;;;;;5011402;28;20053;-71
2024/03/11 06:31:33;;;;;;;15.20;8.20;;;384.40;2022.40;;;;;;5011137;28;20049;-72
2024/03/11 06:34:02;;;;;;;23.88;12.07;;;384.40;2048.00;;;;;;5011375;28;20026;-72
2024/03/11 06:36:29;;;;;;;16.27;10.55;;;384.30;2022.40;;;;;;5011526;28;20156;-71
2024/03/11 06:38:58;;;;;;;20.35;9.90;;;384.30;2048.00;;;;;;5010200;28;20057;-73
2024/03/11 06:41:25;;;;;;;16.20;9.93;;;384.40;2048.00;;;;;;5010864;28;20018;-74
2024/03/11 06:43:51;;;;;;;19.63;10.73;;;384.40;2048.00;;;;;;5011312;28;20046;-73
2024/03/11 06:46:18;;;;;;;17.20;8.85;;;384.40;2022.40;;;;;;5014248;28;20032;-73
2024/03/11 06:48:44;;;;;;;14.95;8.82;;;384.60;2022.40;;;;;;5029595;28;20648;-73
2024/03/11 06:51:12;;;;;;;14.93;7.38;;;384.70;1996.80;;;;;;4999649;28;20060;-72
2024/03/11 06:53:38;;;;;;;22.10;10.02;;;384.80;1996.80;;;;;;5011350;28;20022;-70
2024/03/11 06:56:10;;;;;;;12.85;7.13;;;384.90;1971.20;;;;;;5011031;28;20064;-71
2024/03/11 06:58:41;;;;;;;14.30;8.98;;;409.70;1996.80;;;;;;5008393;28;20536;-71
2024/03/11 07:01:10;;;;;;;14.55;8.60;;;410.20;1971.20;;;;;;5011066;28;20465;-70
2024/03/11 07:03:36;;;;;;;17.38;8.38;;;435.30;1894.40;;;;;;5012614;28;20026;-69
2024/03/11 07:06:03;;;;;;;16.85;9.05;;;435.70;1868.80;;;;;;5012644;28;20108;-71
2024/03/11 07:08:32;;;;;;;25.38;15.65;;;435.90;1843.20;;;;;;5023850;28;20018;-71
2024/03/11 07:11:00;;;;;;;15.35;10.52;;;460.80;1843.20;;;;;;5019668;28;20037;-72
2024/03/11 07:13:29;;;;;;;18.30;10.07;;;460.90;1817.60;;;;;;5018611;28;20121;-72
2024/03/11 07:15:55;;;;;;;22.70;13.80;;;461.30;1817.60;;;;;;4997754;28;20108;-73
2024/03/11 07:18:22;;;;;;;20.30;14.90;;;461.70;1766.40;;;;;;5022161;28;20460;-73
2024/03/11 07:20:52;;;;;;;16.17;8.25;;;486.70;1740.80;;;;;;5010659;28;20053;-73
2024/03/11 07:23:19;;;;;;;14.50;8.43;;;486.90;1715.20;;;;;;5010516;28;20116;-74
2024/03/11 07:25:45;;;;;;;14.93;8.18;;;512.60;1664.00;;;;;;5010566;28;20113;-71
2024/03/11 07:28:12;;;;;;;9.93;7.47;;;538.10;1638.40;;;;;;5010069;28;20591;-72
2024/03/11 07:30:39;;;;;;;12.73;8.55;;;563.70;1587.20;;;;;;5010254;28;20042;-71
2024/03/11 07:33:07;;;;;;;13.18;8.55;;;589.30;1510.40;;;;;;5019718;28;20026;-74
2024/03/11 07:35:37;;;;;;;29.23;12.93;;;589.50;1536.00;;;;;;5004579;28;20027;-74
2024/03/11 07:38:06;;;;;;;24.80;11.50;;;615.20;1459.20;;;;;;5010256;28;20036;-76
2024/03/11 07:40:32;;;;;;;17.13;8.55;;;666.30;1356.80;;;;;;5010000;28;20520;-80
2024/03/11 07:42:59;;;;;;;20.35;10.30;;;691.40;1356.80;;;;;;5010345;28;20105;-79
2024/03/11 07:45:25;;;;;;;16.88;10.15;;;691.60;1331.20;;;;;;5002582;28;20062;-77
2024/03/11 07:47:53;;;;;;;16.80;8.43;;;691.70;1331.20;;;;;;5008863;28;20021;-79
2024/03/11 07:50:20;;;;;;;15.25;8.98;;;691.20;1356.80;;;;;;5011537;28;20046;-81
2024/03/11 07:52:47;;;;;;;16.33;11.00;;;691.30;1356.80;;;;;;5010353;28;20018;-79
2024/03/11 07:55:12;;;;;;;23.70;11.55;;;666.00;1382.40;;;;;;5009756;28;20076;-76
2024/03/11 07:57:39;;;;;;;76.95;12.38;;;640.60;1382.40;;;;;;4999039;28;20432;-75
2024/03/11 08:00:08;;;;;;;18.02;9.85;;;640.90;1382.40;;;;;;5008988;28;20026;-75
2024/03/11 08:02:34;;;;;;;25.38;10.75;;;666.00;1382.40;;;;;;5009982;28;20018;-76
2024/03/11 08:05:01;;;;;;;17.25;9.25;;;665.90;1382.40;;;;;;5005544;28;20026;-82
2024/03/11 08:07:32;;;;;;;19.48;12.00;;;665.70;1408.00;;;;;;4994754;28;20487;-77
2024/03/11 08:10:00;;;;;;;18.75;9.05;;;640.40;1433.60;;;;;;5011060;28;20032;-80
2024/03/11 08:12:29;;;;;;;13.90;8.18;;;615.00;1459.20;;;;;;5011534;28;20026;-78
2024/03/11 08:14:55;;;;;;;25.40;8.65;;;640.10;1484.80;;;;;;5009689;28;20034;-77
2024/03/11 08:17:22;;;;;;;12.57;7.05;;;640.10;1433.60;;;;;;5009331;28;20025;-80
2024/03/11 08:19:48;;;;;;;13.20;8.63;;;614.80;1484.80;;;;;;5006732;28;20465;-77
2024/03/11 08:22:16;;;;;;;14.52;9.77;;;614.40;1510.40;;;;;;5004694;28;20031;-75
2024/03/11 08:24:43;;;;;;;15.68;10.55;;;589.40;1536.00;;;;;;5008250;28;20053;-81
2024/03/11 08:27:09;;;;;;;23.27;13.23;;;640.20;1459.20;;;;;;5024795;28;20048;-82
2024/03/11 08:29:34;;;;;;;17.85;9.10;;;615.00;1459.20;;;;;;5019636;28;20022;-81
2024/03/11 08:32:01;;;;;;;17.42;8.57;;;589.60;1510.40;;;;;;5024477;28;20059;-83
2024/03/11 08:34:35;;;;;;;15.13;8.52;;;588.80;1561.60;;;;;;5000035;28;20034;-83
2024/03/11 08:37:03;;;;;;;20.92;10.68;;;563.50;1587.20;;;;;;4997936;28;20022;-83
2024/03/11 08:39:30;;;;;;;23.33;11.75;;;538.40;1587.20;;;;;;5012047;28;20046;-78
2024/03/11 08:41:57;;;;;;;21.70;10.90;;;537.80;1638.40;;;;;;5013912;28;20032;-79
2024/03/11 08:44:23;;;;;;;20.38;11.68;;;538.50;1587.20;;;;;;4996057;28;20432;-79
2024/03/11 08:46:51;;;;;;;19.13;10.45;;;563.60;1587.20;;;;;;5009363;28;20134;-76
2024/03/11 08:49:16;;;;;;;22.63;11.18;;;589.40;1510.40;;;;;;5009186;28;20018;-84
2024/03/11 08:51:42;;;;;;;12.57;8.93;;;615.00;1459.20;;;;;;5009120;28;20145;-75
2024/03/11 08:54:09;;;;;;;17.15;10.00;;;615.00;1459.20;;;;;;5009219;28;20330;-72
2024/03/11 08:56:36;;;;;;;18.73;8.70;;;614.80;1459.20;;;;;;5008970;28;20112;-72
2024/03/11 08:59:10;;;;;;;18.65;11.38;;;666.00;1408.00;;;;;;5008862;28;20476;-72
2024/03/11 09:01:40;;;;;;;22.17;13.85;;;716.80;1356.80;;;;;;5008240;28;20087;-72
2024/03/11 09:04:10;;;;;;;19.95;8.77;;;717.30;1331.20;;;;;;5008822;28;20498;-72
2024/03/11 09:06:43;;;;;;;18.65;10.55;;;717.70;1305.60;;;;;;5009031;28;20022;-71
2024/03/11 09:09:09;;;;;;;19.05;11.45;;;742.50;1280.00;;;;;;5009086;28;20026;-72
2024/03/11 09:11:37;;;;;;;27.30;13.75;;;742.70;1305.60;;;;;;5008599;28;20057;-72
2024/03/11 09:14:04;;;;;;;19.73;10.93;;;717.20;1305.60;;;;;;5008662;28;20061;-72
2024/03/11 09:16:30;;;;;;;22.10;14.85;;;691.50;1305.60;;;;;;5009009;28;20029;-72
2024/03/11 09:18:56;;;;;;;18.60;10.85;;;666.50;1382.40;;;;;;5008887;28;20522;-72
2024/03/11 09:21:22;;;;;;;21.52;11.70;;;640.60;1382.40;;;;;;5008616;28;20062;-75
2024/03/11 09:23:49;;;;;;;15.10;11.02;;;640.30;1408.00;;;;;;5008912;28;20025;-72
2024/03/11 09:26:17;;;;;;;17.48;9.98;;;615.20;1433.60;;;;;;5007997;28;20033;-72
2024/03/11 09:28:46;;;;;;;15.27;9.73;;;589.60;1484.80;;;;;;5008958;28;20652;-72
2024/03/11 09:31:15;;;;;;;16.88;9.13;;;589.40;1510.40;;;;;;5008518;28;20045;-72
2024/03/11 09:33:42;;;;;;;13.88;8.63;;;589.20;1536.00;;;;;;5008696;28;20110;-72
2024/03/11 09:36:08;;;;;;;16.58;10.57;;;589.00;1536.00;;;;;;5008792;28;20025;-71
2024/03/11 09:38:35;;;;;;;22.48;12.38;;;589.00;1536.00;;;;;;5008692;28;20052;-72
2024/03/11 09:41:09;;;;;;;25.95;12.15;;;589.10;1536.00;;;;;;5008328;28;20052;-72
2024/03/11 09:43:37;;;;;;;25.98;14.73;;;589.20;1536.00;;;;;;5008276;28;20030;-71
2024/03/11 09:46:06;;;;;;;16.55;10.13;;;589.40;1536.00;;;;;;5008383;28;20044;-71
2024/03/11 09:48:33;;;;;;;16.23;9.10;;;589.20;1536.00;;;;;;5008200;28;20384;-72
2024/03/11 09:50:59;;;;;;;12.25;8.65;;;589.40;1536.00;;;;;;5009169;28;20030;-72
2024/03/11 09:53:26;;;;;;;24.13;8.82;;;588.90;1536.00;;;;;;5008578;28;20498;-71
2024/03/11 09:55:56;;;;;;;15.52;9.18;;;564.10;1587.20;;;;;;5008310;28;20030;-72
2024/03/11 09:58:23;;;;;;;17.73;9.57;;;564.00;1612.80;;;;;;5008540;28;20018;-72
2024/03/11 10:00:55;;;;;;;16.67;9.68;;;563.70;1587.20;;;;;;5008547;28;20485;-73
2024/03/11 10:03:26;;;;;;;26.13;14.23;;;563.50;1587.20;;;;;;5008132;28;20018;-71
2024/03/11 10:06:01;;;;;;;25.90;14.75;;;563.30;1612.80;;;;;;5008176;28;20027;-71
2024/03/11 10:08:34;;;;;;;27.83;18.02;;;538.50;1587.20;;;;;;5008281;28;20563;-71
2024/03/11 10:11:24;;;;;;;20.23;12.88;;;538.50;1612.80;;;;;;5008333;28;20030;-71
2024/03/11 10:13:56;;;;;;;29.75;18.88;;;538.30;1612.80;;;;;;5011097;28;20018;-70
2024/03/11 10:16:26;;;;;;;24.67;15.48;;;538.20;1664.00;;;;;;5011726;28;20030;-72
2024/03/11 10:19:05;;;;;;;34.17;19.63;;;538.00;1638.40;;;;;;5011159;28;20021;-71
2024/03/11 10:21:34;;;;;;;18.15;8.85;;;538.00;1638.40;;;;;;5011987;28;20025;-71
2024/03/11 10:24:00;;;;;;;30.15;22.05;;;538.00;1638.40;;;;;;5011626;28;20028;-71
2024/03/11 10:26:30;;;;;;;15.60;10.00;;;537.90;1638.40;;;;;;5011621;28;20499;-72
2024/03/11 10:28:56;;;;;;;20.20;12.95;;;512.90;1664.00;;;;;;5011553;28;20088;-77
2024/03/11 10:31:34;;;;;;;21.40;10.77;;;512.80;1664.00;;;;;;5010877;28;20081;-71
2024/03/11 10:34:10;;;;;;;17.95;9.98;;;512.50;1664.00;;;;;;5011377;28;20058;-71
2024/03/11 10:36:40;;;;;;;31.05;19.20;;;512.30;1715.20;;;;;;5011498;28;20430;-72
2024/03/11 10:39:18;;;;;;;141.77;94.00;;;512.40;1715.20;;;;;;5011684;28;20384;-74
2024/03/11 10:41:45;;;;;;;31.60;20.10;;;512.50;1715.20;;;;;;5011210;28;20037;-72
2024/03/11 10:44:18;;;;;;;17.55;12.18;;;512.50;1766.40;;;;;;5011068;28;20026;-72
2024/03/11 10:46:44;;;;;;;46.63;27.08;;;512.40;1689.60;;;;;;4998742;28;20029;-73
2024/03/11 10:49:14;;;;;;;44.95;28.35;;;512.20;1689.60;;;;;;5011274;28;20064;-72
2024/03/11 10:51:45;;;;;;;23.50;13.70;;;512.20;1689.60;;;;;;5011327;28;20121;-71
2024/03/11 10:54:28;;;;;;;29.40;21.35;;;512.10;1689.60;;;;;;5011231;28;20372;-71
2024/03/11 10:56:55;;;;;;;39.15;27.58;;;512.10;1689.60;;;;;;5011305;28;20097;-71
2024/03/11 10:59:29;;;;;;;34.15;24.10;;;512.10;1715.20;;;;;;5011073;28;20045;-75
2024/03/11 11:01:58;;;;;;;19.92;13.38;;;512.20;1715.20;;;;;;5010774;28;20056;-72
2024/03/11 11:04:33;;;;;;;51.67;40.83;;;487.00;1715.20;;;;;;5010806;28;20030;-74
2024/03/11 11:07:02;;;;;;;31.42;19.88;;;512.10;1715.20;;;;;;5011047;28;20105;-70
2024/03/11 11:09:29;;;;;;;62.60;47.45;;;512.10;1766.40;;;;;;5011245;28;20045;-75
2024/03/11 11:11:56;;;;;;;28.67;19.80;;;512.00;1766.40;;;;;;5010829;28;20149;-72
2024/03/11 11:14:27;;;;;;;56.58;39.40;;;487.30;1715.20;;;;;;5010767;28;20029;-71
2024/03/11 11:16:55;;;;;;;10.15;5.65;;;512.00;1740.80;;;;;;5010391;28;20030;-76
2024/03/11 11:19:35;;;;;;;23.98;20.10;;;487.30;1715.20;;;;;;5010478;28;20033;-71
2024/03/11 11:22:04;;;;;;;47.45;42.53;;;487.30;1689.60;;;;;;5010249;28;20057;-73
2024/03/11 11:24:32;;;;;;;5.57;4.22;;;512.00;1689.60;;;;;;5010146;28;20030;-71
2024/03/11 11:26:59;;;;;;;15.98;14.43;;;512.00;1689.60;;;;;;5010470;28;20045;-75
2024/03/11 11:29:27;;;;;;;6.85;5.63;;;487.20;1689.60;;;;;;5010704;28;20033;-75
2024/03/11 11:32:11;;;;;;;4.07;2.15;;;487.20;1689.60;;;;;;5010189;28;20389;-72
2024/03/11 11:34:46;;;;;;;9.45;3.35;;;487.00;1715.20;;;;;;5010185;28;20040;-74
2024/03/11 11:37:34;;;;;;;15.65;9.75;;;486.90;1715.20;;;;;;5010328;28;20025;-72
2024/03/11 11:40:29;;;;;;;49.63;31.00;;;486.90;1740.80;;;;;;5009960;28;20376;-71
2024/03/11 11:42:55;;;;;;;74.28;40.92;;;486.80;1740.80;;;;;;4968834;28;20153;-71
2024/03/11 11:45:47;;;;;;;243.02;117.22;;;486.70;1766.40;;;;;;4967467;28;20043;-72
2024/03/11 11:48:21;;;;;;;16.02;10.73;;;486.70;1792.00;;;;;;4967809;28;20121;-73
2024/03/11 11:50:47;;;;;;;6.30;3.50;;;486.40;1843.20;;;;;;4968403;28;20041;-70
2024/03/11 11:53:24;;;;;;;4.25;1.85;;;461.60;1945.60;;;;;;4967686;28;20081;-75
2024/03/11 11:55:49;;;;;;;9.63;4.18;;;461.40;1996.80;;;;;;4968298;28;20215;-73
2024/03/11 11:58:16;;;;;;;21.38;11.93;;;;;;;;;;4968159;28;20473;-73
2024/03/11 12:00:46;;;;;;;38.47;21.95;;;;;;;;;;4967684;28;20043;-72
2024/03/11 12:03:31;;;;;;;109.45;56.28;;;;;;;;;;4968056;28;20534;-71
2024/03/11 12:06:18;;;;;;;6.10;3.60;;;;;;;;;;4968489;28;20034;-71
2024/03/11 12:08:45;;;;;;;18.77;8.90;;;;;;;;;;4967214;28;20050;-76
2024/03/11 12:11:20;;;;;;;6.15;3.97;;;;;;;;;;4968243;28;20054;-70
2024/03/11 12:13:47;;;;;;;27.88;17.52;;;;;;;;;;4967497;28;20055;-71